Time;durP1;ratioP1;P1;durP2;ratioP2;P2;SDS_P1;SDS_P2;PMS_P1;PMS_P2;Temp;Humidity;BMP_temperature;BMP_pressure;BME280_temperature;BME280_humidity;BME280_pressure;Samples;Min_cycle;Max_cycle;Signal;HPM_P1;HPM_P2
2023/07/03 00:02:25;0.00;0.00;0.62;0.00;0.00;0.62;5.83;3.60;;;29.70;23.50;;;;;;2232976;62;20416;-58
2023/07/03 00:05:11;0.00;0.00;0.62;0.00;0.00;0.62;3.27;2.50;;;29.70;23.50;;;;;;2232267;62;20399;-58
2023/07/03 00:07:55;0.00;0.00;0.62;0.00;0.00;0.62;4.07;2.97;;;29.60;23.40;;;;;;2232937;62;20356;-62
2023/07/03 00:10:40;0.00;0.00;0.62;0.00;0.00;0.62;4.00;2.80;;;29.70;24.00;;;;;;2232696;62;20786;-59
2023/07/03 00:13:26;0.00;0.00;0.62;0.00;0.00;0.62;3.87;3.37;;;29.60;23.40;;;;;;2232785;62;20387;-58
2023/07/03 00:16:11;0.00;0.00;0.62;0.00;0.00;0.62;4.30;3.07;;;29.70;23.50;;;;;;2232786;62;20827;-57
2023/07/03 00:18:56;0.00;0.00;0.62;0.00;0.00;0.62;4.37;3.63;;;29.60;23.40;;;;;;2231880;62;20398;-60
2023/07/03 00:21:43;0.00;0.00;0.62;0.00;0.00;0.62;4.33;2.93;;;29.60;23.90;;;;;;2233059;62;20901;-59
2023/07/03 00:24:31;0.00;0.00;0.62;0.00;0.00;0.62;3.97;2.70;;;29.60;23.90;;;;;;2232710;62;20391;-60
2023/07/03 00:27:16;0.00;0.00;0.62;0.00;0.00;0.62;4.00;2.87;;;29.60;23.40;;;;;;2232219;62;20793;-61
2023/07/03 00:30:04;0.00;0.00;0.62;0.00;0.00;0.62;3.53;2.87;;;29.60;23.40;;;;;;2232526;62;20419;-61
2023/07/03 00:32:49;0.00;0.00;0.62;0.00;0.00;0.62;3.60;2.70;;;29.60;23.50;;;;;;2232972;62;20391;-60
2023/07/03 00:35:37;0.00;0.00;0.62;0.00;0.00;0.62;3.47;3.10;;;29.60;23.40;;;;;;2232609;62;20434;-56
2023/07/03 00:38:21;0.00;0.00;0.62;0.00;0.00;0.62;4.20;3.17;;;29.60;23.40;;;;;;2229401;62;20380;-59
2023/07/03 00:41:06;0.00;0.00;0.62;0.00;0.00;0.62;3.70;3.13;;;29.60;23.40;;;;;;2231930;62;20475;-62
2023/07/03 00:43:51;0.00;0.00;0.62;0.00;0.00;0.62;3.77;2.80;;;29.60;23.40;;;;;;2232577;62;20391;-63
2023/07/03 00:46:38;0.00;0.00;0.62;0.00;0.00;0.62;3.87;2.30;;;29.60;23.40;;;;;;2232764;62;20411;-64
2023/07/03 00:49:24;0.00;0.00;0.62;0.00;0.00;0.62;3.90;2.90;;;29.60;23.50;;;;;;2231222;62;20375;-59
2023/07/03 00:52:12;0.00;0.00;0.62;0.00;0.00;0.62;4.20;2.80;;;29.60;23.40;;;;;;2229749;62;20435;-60
2023/07/03 00:54:57;0.00;0.00;0.62;0.00;0.00;0.62;4.37;3.03;;;29.60;23.40;;;;;;2232983;62;20444;-60
2023/07/03 00:57:42;0.00;0.00;0.62;0.00;0.00;0.62;4.00;2.97;;;29.60;23.40;;;;;;2232339;62;20817;-57
2023/07/03 01:00:35;0.00;0.00;0.62;0.00;0.00;0.62;3.30;2.43;;;29.50;23.30;;;;;;2232298;62;20398;-57
2023/07/03 01:03:32;0.00;0.00;0.62;0.00;0.00;0.62;3.73;2.73;;;29.60;23.40;;;;;;2228867;62;20581;-60
2023/07/03 01:06:23;0.00;0.00;0.62;0.00;0.00;0.62;4.33;3.13;;;29.60;23.40;;;;;;2229750;62;20400;-60
2023/07/03 01:09:11;0.00;0.00;0.62;0.00;0.00;0.62;3.40;2.90;;;29.60;23.40;;;;;;2229127;62;20376;-57
2023/07/03 01:11:57;0.00;0.00;0.62;0.00;0.00;0.62;3.90;2.97;;;29.60;23.40;;;;;;2232370;62;20830;-60
2023/07/03 01:14:44;0.00;0.00;0.62;0.00;0.00;0.62;4.30;3.23;;;29.50;23.30;;;;;;2232828;62;20410;-62
2023/07/03 01:17:30;0.00;0.00;0.62;0.00;0.00;0.62;4.17;3.27;;;29.50;23.30;;;;;;2232396;62;20458;-60
2023/07/03 01:20:20;0.00;0.00;0.62;0.00;0.00;0.62;3.60;2.87;;;29.50;23.30;;;;;;2232276;62;20506;-57
2023/07/03 01:23:13;0.00;0.00;0.62;0.00;0.00;0.62;4.13;2.80;;;29.50;23.30;;;;;;2232608;62;20443;-58
2023/07/03 01:26:00;0.00;0.00;0.62;0.00;0.00;0.62;4.63;3.40;;;29.50;23.30;;;;;;2232093;62;20463;-58
2023/07/03 01:28:48;0.00;0.00;0.62;0.00;0.00;0.62;3.30;2.43;;;29.50;23.30;;;;;;2229229;62;20419;-62
2023/07/03 01:31:35;0.00;0.00;0.62;0.00;0.00;0.62;3.53;3.00;;;29.50;23.30;;;;;;2232730;62;20406;-60
2023/07/03 01:34:20;0.00;0.00;0.62;0.00;0.00;0.62;5.40;3.30;;;29.50;23.30;;;;;;2231935;62;20386;-58
2023/07/03 01:37:06;0.00;0.00;0.62;0.00;0.00;0.62;3.70;3.17;;;29.50;23.30;;;;;;2232635;62;20921;-61
2023/07/03 01:39:52;0.00;0.00;0.62;0.00;0.00;0.62;4.93;3.10;;;29.50;23.30;;;;;;2231612;62;20379;-59
2023/07/03 01:42:40;0.00;0.00;0.62;0.00;0.00;0.62;3.20;2.80;;;29.50;23.30;;;;;;2229512;62;20425;-60
2023/07/03 01:45:26;0.00;0.00;0.62;0.00;0.00;0.62;3.70;2.93;;;29.50;23.30;;;;;;2232738;62;20875;-58
2023/07/03 01:48:11;0.00;0.00;0.62;0.00;0.00;0.62;3.47;2.70;;;29.50;23.30;;;;;;2231729;62;20415;-59
2023/07/03 01:50:57;0.00;0.00;0.62;0.00;0.00;0.62;5.33;3.50;;;29.50;23.30;;;;;;2232713;62;20371;-63
2023/07/03 01:53:48;0.00;0.00;0.62;0.00;0.00;0.62;3.37;2.93;;;29.50;23.20;;;;;;2232582;62;20501;-57
2023/07/03 01:56:37;0.00;0.00;0.62;0.00;0.00;0.62;3.73;3.00;;;29.50;23.20;;;;;;2231995;62;20471;-56
2023/07/03 01:59:25;0.00;0.00;0.62;0.00;0.00;0.62;3.50;2.87;;;29.50;23.20;;;;;;2231482;62;20473;-62
2023/07/03 02:02:16;0.00;0.00;0.62;0.00;0.00;0.62;4.33;3.30;;;29.40;23.10;;;;;;2232104;62;20384;-59
2023/07/03 02:05:09;0.00;0.00;0.62;0.00;0.00;0.62;3.83;2.80;;;29.40;23.10;;;;;;2232610;62;20801;-58
2023/07/03 02:07:58;0.00;0.00;0.62;0.00;0.00;0.62;3.97;3.10;;;29.40;23.10;;;;;;2232666;62;20380;-61
2023/07/03 02:10:43;0.00;0.00;0.62;0.00;0.00;0.62;4.43;2.83;;;29.40;23.10;;;;;;2228590;62;20936;-59
2023/07/03 02:13:28;0.00;0.00;0.62;0.00;0.00;0.62;5.10;3.43;;;29.40;23.10;;;;;;2229553;62;20929;-60
2023/07/03 02:16:17;0.00;0.00;0.62;0.00;0.00;0.62;5.40;3.67;;;29.40;23.10;;;;;;2229263;62;20926;-58
2023/07/03 02:19:02;0.00;0.00;0.62;0.00;0.00;0.62;6.30;4.07;;;29.40;23.00;;;;;;2228930;62;20851;-57
2023/07/03 02:21:47;0.00;0.00;0.62;0.00;0.00;0.62;4.43;3.50;;;29.40;23.60;;;;;;2232411;62;20439;-61
2023/07/03 02:24:33;0.00;0.00;0.62;0.00;0.00;0.62;4.60;3.80;;;29.40;23.00;;;;;;2231476;62;20996;-58
2023/07/03 02:27:19;0.00;0.00;0.62;0.00;0.00;0.62;5.50;4.00;;;29.40;23.00;;;;;;2232128;62;20392;-58
2023/07/03 02:30:06;0.00;0.00;0.62;0.00;0.00;0.62;3.80;3.00;;;29.40;23.00;;;;;;2232251;62;20471;-59
2023/07/03 02:32:54;0.00;0.00;0.62;0.00;0.00;0.62;3.43;3.13;;;29.40;23.00;;;;;;2231753;62;20411;-60
2023/07/03 02:35:41;0.00;0.00;0.62;0.00;0.00;0.62;4.60;3.73;;;29.40;23.00;;;;;;2232330;62;20383;-59
2023/07/03 02:38:26;0.00;0.00;0.62;0.00;0.00;0.62;3.93;2.83;;;29.40;23.00;;;;;;2232076;62;21064;-61
2023/07/03 02:41:10;0.00;0.00;0.62;0.00;0.00;0.62;5.07;3.27;;;29.40;23.00;;;;;;2231914;62;20375;-60
2023/07/03 02:43:55;0.00;0.00;0.62;0.00;0.00;0.62;4.50;3.30;;;29.40;23.00;;;;;;2232450;62;20809;-58
2023/07/03 02:46:42;0.00;0.00;0.62;0.00;0.00;0.62;5.87;3.67;;;29.40;23.00;;;;;;2228790;62;20419;-59
2023/07/03 02:49:30;0.00;0.00;0.62;0.00;0.00;0.62;4.13;3.23;;;29.40;23.00;;;;;;2228739;62;20403;-58
2023/07/03 02:52:18;0.00;0.00;0.62;0.00;0.00;0.62;3.70;2.73;;;29.30;23.00;;;;;;2229393;62;20505;-57
2023/07/03 02:55:04;0.00;0.00;0.62;0.00;0.00;0.62;4.73;3.40;;;29.30;23.00;;;;;;2231662;62;20440;-61
2023/07/03 02:57:49;0.00;0.00;0.62;0.00;0.00;0.62;5.00;3.40;;;29.30;23.00;;;;;;2232399;62;20822;-57
2023/07/03 03:00:33;0.00;0.00;0.62;0.00;0.00;0.62;4.33;3.10;;;29.30;23.00;;;;;;2229058;62;20356;-61
2023/07/03 03:03:18;0.00;0.00;0.62;0.00;0.00;0.62;4.33;3.17;;;29.30;23.00;;;;;;2228546;62;20947;-61
2023/07/03 03:06:04;0.00;0.00;0.62;0.00;0.00;0.62;4.30;3.40;;;29.30;23.00;;;;;;2232194;62;20367;-60
2023/07/03 03:08:49;0.00;0.00;0.62;0.00;0.00;0.62;5.00;3.40;;;29.30;23.00;;;;;;2228341;62;20787;-60
2023/07/03 03:11:34;0.00;0.00;0.62;0.00;0.00;0.62;7.00;3.60;;;29.30;23.00;;;;;;2229013;62;20395;-61
2023/07/03 03:14:19;0.00;0.00;0.62;0.00;0.00;0.62;4.93;3.87;;;29.30;23.00;;;;;;2229203;62;20475;-57
2023/07/03 03:17:04;0.00;0.00;0.62;0.00;0.00;0.62;4.50;3.70;;;29.30;23.00;;;;;;2228493;62;20476;-59
2023/07/03 03:19:48;0.00;0.00;0.62;0.00;0.00;0.62;4.53;3.23;;;29.30;23.00;;;;;;2231879;62;20392;-59
2023/07/03 03:22:35;0.00;0.00;0.62;0.00;0.00;0.62;4.40;3.67;;;29.30;23.00;;;;;;2228994;62;20379;-61
2023/07/03 03:25:19;0.00;0.00;0.62;0.00;0.00;0.62;4.47;3.97;;;29.30;23.00;;;;;;2231518;62;20399;-61
2023/07/03 03:28:05;0.00;0.00;0.62;0.00;0.00;0.62;4.20;3.50;;;29.30;23.00;;;;;;2229037;62;20889;-57
2023/07/03 03:30:50;0.00;0.00;0.62;0.00;0.00;0.62;4.90;3.47;;;29.30;23.00;;;;;;2231929;62;20375;-59
2023/07/03 03:33:35;0.00;0.00;0.62;0.00;0.00;0.62;4.33;3.80;;;29.20;22.90;;;;;;2231841;62;20451;-61
2023/07/03 03:36:21;0.00;0.00;0.62;0.00;0.00;0.62;4.80;3.63;;;29.20;23.00;;;;;;2229127;62;20853;-57
2023/07/03 03:39:07;0.00;0.00;0.62;0.00;0.00;0.62;5.13;4.23;;;29.20;22.90;;;;;;2231006;62;20894;-59
2023/07/03 03:41:52;0.00;0.00;0.62;0.00;0.00;0.62;5.13;3.80;;;29.20;22.90;;;;;;2229377;62;20371;-60
2023/07/03 03:44:37;0.00;0.00;0.62;0.00;0.00;0.62;4.20;3.47;;;29.20;22.90;;;;;;2229163;62;20394;-63
2023/07/03 03:47:22;0.00;0.00;0.62;0.00;0.00;0.62;5.10;3.33;;;29.20;23.00;;;;;;2231688;62;20460;-62
2023/07/03 03:50:09;0.00;0.00;0.62;0.00;0.00;0.62;5.07;3.30;;;29.20;22.90;;;;;;2228781;62;20936;-63
2023/07/03 03:52:58;0.00;0.00;0.62;0.00;0.00;0.62;5.40;3.13;;;29.20;23.00;;;;;;2231518;62;20367;-57
2023/07/03 03:55:47;0.00;0.00;0.62;0.00;0.00;0.62;5.27;3.80;;;29.20;23.00;;;;;;2232489;62;20367;-57
2023/07/03 03:58:32;0.00;0.00;0.62;0.00;0.00;0.62;4.90;3.37;;;29.20;23.00;;;;;;2228739;62;20986;-61
2023/07/03 04:01:17;0.00;0.00;0.62;0.00;0.00;0.62;5.07;4.37;;;29.20;23.00;;;;;;2231168;62;20462;-60
2023/07/03 04:04:03;0.00;0.00;0.62;0.00;0.00;0.62;5.80;3.57;;;29.10;22.90;;;;;;2229056;62;20391;-61
2023/07/03 04:06:48;0.00;0.00;0.62;0.00;0.00;0.62;5.20;3.70;;;29.20;23.00;;;;;;2232122;62;20371;-62
2023/07/03 04:09:33;0.00;0.00;0.62;0.00;0.00;0.62;4.47;3.63;;;29.20;23.00;;;;;;2231271;62;20446;-61
2023/07/03 04:12:20;0.00;0.00;0.62;0.00;0.00;0.62;4.80;3.93;;;29.20;23.00;;;;;;2232060;62;20371;-62
2023/07/03 04:15:07;0.00;0.00;0.62;0.00;0.00;0.62;4.90;3.40;;;29.20;23.00;;;;;;2231731;62;20462;-59
2023/07/03 04:17:52;0.00;0.00;0.62;0.00;0.00;0.62;6.40;4.10;;;29.20;23.00;;;;;;2231994;62;20428;-62
2023/07/03 04:20:36;0.00;0.00;0.62;0.00;0.00;0.62;4.60;3.50;;;29.20;23.00;;;;;;2231862;62;20375;-59
2023/07/03 04:23:21;0.00;0.00;0.62;0.00;0.00;0.62;5.50;4.07;;;29.10;23.00;;;;;;2231915;62;20884;-61
2023/07/03 04:26:06;0.00;0.00;0.62;0.00;0.00;0.62;4.47;3.37;;;29.10;23.00;;;;;;2232964;62;20402;-63
2023/07/03 04:28:52;0.00;0.00;0.62;0.00;0.00;0.62;4.40;3.33;;;29.10;23.00;;;;;;2232324;62;20917;-62
2023/07/03 04:31:37;0.00;0.00;0.62;0.00;0.00;0.62;4.77;3.90;;;29.10;23.00;;;;;;2232411;62;20504;-62
2023/07/03 04:34:21;0.00;0.00;0.62;0.00;0.00;0.62;4.97;3.40;;;29.10;23.00;;;;;;2232533;62;20383;-59
2023/07/03 04:37:08;0.00;0.00;0.62;0.00;0.00;0.62;5.10;4.00;;;29.10;23.00;;;;;;2232757;62;20903;-63
2023/07/03 04:39:53;0.00;0.00;0.62;0.00;0.00;0.62;4.53;3.27;;;29.10;23.00;;;;;;2232027;62;20395;-61
2023/07/03 04:42:40;0.00;0.00;0.62;0.00;0.00;0.62;3.80;3.03;;;29.10;23.00;;;;;;2232632;62;20796;-58
2023/07/03 04:45:28;0.00;0.00;0.62;0.00;0.00;0.62;5.63;3.60;;;29.10;23.00;;;;;;2232171;62;20874;-62
2023/07/03 04:48:13;0.00;0.00;0.62;0.00;0.00;0.62;5.37;3.90;;;29.10;23.00;;;;;;2232637;62;20355;-62
2023/07/03 04:50:59;0.00;0.00;0.62;0.00;0.00;0.62;6.50;3.80;;;29.10;23.00;;;;;;2232638;62;20366;-60
2023/07/03 04:53:44;0.00;0.00;0.62;0.00;0.00;0.62;4.57;3.17;;;29.10;23.00;;;;;;2232042;62;20394;-62
2023/07/03 04:56:30;0.00;0.00;0.62;0.00;0.00;0.62;5.13;3.20;;;29.10;23.10;;;;;;2232647;62;20427;-62
2023/07/03 04:59:15;0.00;0.00;0.62;0.00;0.00;0.62;4.90;3.73;;;29.10;23.10;;;;;;2232292;62;20375;-60
2023/07/03 05:02:01;0.00;0.00;0.62;0.00;0.00;0.62;6.10;3.40;;;29.10;23.10;;;;;;2232317;62;20391;-62
2023/07/03 05:04:47;0.00;0.00;0.62;0.00;0.00;0.62;5.63;3.87;;;29.10;23.20;;;;;;2232600;62;20438;-62
2023/07/03 05:07:31;0.00;0.00;0.62;0.00;0.00;0.62;3.60;3.03;;;29.10;23.10;;;;;;2231917;62;20410;-58
2023/07/03 05:10:17;0.00;0.00;0.62;0.00;0.00;0.62;4.13;3.00;;;29.10;23.10;;;;;;2231979;62;20738;-59
2023/07/03 05:13:02;0.00;0.00;0.62;0.00;0.00;0.62;4.93;2.97;;;29.10;23.10;;;;;;2232542;62;20399;-59
2023/07/03 05:15:47;0.00;0.00;0.62;0.00;0.00;0.62;4.13;2.70;;;29.10;23.10;;;;;;2231949;62;20379;-62
2023/07/03 05:18:32;0.00;0.00;0.62;0.00;0.00;0.62;4.30;3.33;;;29.10;23.10;;;;;;2232248;62;20368;-60
2023/07/03 05:21:17;0.00;0.00;0.62;0.00;0.00;0.62;4.70;3.70;;;29.10;23.10;;;;;;2232726;62;20415;-64
2023/07/03 05:24:03;0.00;0.00;0.62;0.00;0.00;0.62;4.80;3.63;;;29.10;23.10;;;;;;2232149;62;20416;-59
2023/07/03 05:26:48;0.00;0.00;0.62;0.00;0.00;0.62;5.60;3.67;;;29.10;23.10;;;;;;2232623;62;20911;-62
2023/07/03 05:29:33;0.00;0.00;0.62;0.00;0.00;0.62;4.70;2.93;;;29.10;23.10;;;;;;2231647;62;20604;-62
2023/07/03 05:32:17;0.00;0.00;0.62;0.00;0.00;0.62;3.37;2.83;;;29.10;23.10;;;;;;2232482;62;20383;-60
2023/07/03 05:35:05;0.00;0.00;0.62;0.00;0.00;0.62;4.87;3.17;;;29.10;23.10;;;;;;2232334;62;20402;-62
2023/07/03 05:37:50;0.00;0.00;0.62;0.00;0.00;0.62;3.70;2.63;;;29.10;23.20;;;;;;2231625;62;20732;-62
2023/07/03 05:40:35;0.00;0.00;0.62;0.00;0.00;0.62;4.23;3.30;;;29.10;23.20;;;;;;2232274;62;20407;-62
2023/07/03 05:43:19;0.00;0.00;0.62;0.00;0.00;0.62;5.60;3.80;;;29.10;23.20;;;;;;2232693;62;20391;-63
2023/07/03 05:46:04;0.00;0.00;0.62;0.00;0.00;0.62;5.37;2.97;;;29.10;23.20;;;;;;2231794;62;20408;-61
2023/07/03 05:48:50;0.00;0.00;0.62;0.00;0.00;0.62;4.97;3.53;;;29.10;23.20;;;;;;2232200;62;20898;-60
2023/07/03 05:51:36;0.00;0.00;0.62;0.00;0.00;0.62;3.63;2.83;;;29.10;23.20;;;;;;2231887;62;20865;-59
2023/07/03 05:54:21;0.00;0.00;0.62;0.00;0.00;0.62;5.67;3.40;;;29.10;23.20;;;;;;2232613;62;20423;-59
2023/07/03 05:57:09;0.00;0.00;0.62;0.00;0.00;0.62;5.03;3.10;;;29.10;23.20;;;;;;2232647;62;20439;-62
2023/07/03 05:59:54;0.00;0.00;0.62;0.00;0.00;0.62;3.90;3.10;;;29.10;23.20;;;;;;2231515;62;20371;-60
2023/07/03 06:02:40;0.00;0.00;0.62;0.00;0.00;0.62;3.63;2.80;;;29.10;23.20;;;;;;2232403;62;20367;-59
2023/07/03 06:05:25;0.00;0.00;0.62;0.00;0.00;0.62;5.70;3.40;;;29.10;23.20;;;;;;2232397;62;20950;-58
2023/07/03 06:08:11;0.00;0.00;0.62;0.00;0.00;0.62;4.03;3.00;;;29.10;23.20;;;;;;2231708;62;20835;-60
2023/07/03 06:10:56;0.00;0.00;0.62;0.00;0.00;0.62;6.03;3.40;;;29.10;23.20;;;;;;2232330;62;20372;-60
2023/07/03 06:13:41;0.00;0.00;0.62;0.00;0.00;0.62;5.17;3.33;;;29.10;23.20;;;;;;2232228;62;20451;-62
2023/07/03 06:16:27;0.00;0.00;0.62;0.00;0.00;0.62;3.60;3.10;;;29.00;23.10;;;;;;2232424;62;20395;-59
2023/07/03 06:19:13;0.00;0.00;0.62;0.00;0.00;0.62;7.90;3.70;;;29.00;23.10;;;;;;2232010;62;20408;-59
2023/07/03 06:21:58;0.00;0.00;0.62;0.00;0.00;0.62;4.17;2.90;;;29.00;23.20;;;;;;2231932;62;20367;-61
2023/07/03 06:24:44;0.00;0.00;0.62;0.00;0.00;0.62;4.53;2.90;;;29.00;23.10;;;;;;2232477;62;20415;-62
2023/07/03 06:27:29;0.00;0.00;0.62;0.00;0.00;0.62;3.93;3.30;;;29.10;23.20;;;;;;2232481;62;20407;-65
2023/07/03 06:30:14;0.00;0.00;0.62;0.00;0.00;0.62;6.57;3.23;;;29.10;23.30;;;;;;2231471;62;20371;-59
2023/07/03 06:32:58;0.00;0.00;0.62;0.00;0.00;0.62;5.00;3.67;;;29.00;23.20;;;;;;2232442;62;20371;-62
2023/07/03 06:35:43;0.00;0.00;0.62;0.00;0.00;0.62;4.30;3.13;;;29.00;23.20;;;;;;2231860;62;20419;-61
2023/07/03 06:38:28;0.00;0.00;0.62;0.00;0.00;0.62;6.57;4.00;;;29.00;23.20;;;;;;2232216;62;20922;-60
2023/07/03 06:41:14;0.00;0.00;0.62;0.00;0.00;0.62;6.50;3.07;;;29.00;23.20;;;;;;2232153;62;20954;-57
2023/07/03 06:43:58;0.00;0.00;0.62;0.00;0.00;0.62;9.10;4.10;;;29.00;23.20;;;;;;2231593;62;20395;-61
2023/07/03 06:46:44;0.00;0.00;0.62;0.00;0.00;0.62;4.23;2.80;;;29.00;23.80;;;;;;2232312;62;20431;-59
2023/07/03 06:49:29;0.00;0.00;0.62;0.00;0.00;0.62;4.07;3.07;;;29.00;23.20;;;;;;2231984;62;20363;-61
2023/07/03 06:52:14;0.00;0.00;0.62;0.00;0.00;0.62;5.10;3.33;;;29.00;23.20;;;;;;2231647;62;20431;-61
2023/07/03 06:54:58;0.00;0.00;0.62;0.00;0.00;0.62;4.20;2.90;;;29.00;23.20;;;;;;2232398;62;20443;-58
2023/07/03 06:57:45;0.00;0.00;0.62;0.00;0.00;0.62;5.60;4.07;;;29.00;23.20;;;;;;2232260;62;20467;-64
2023/07/03 07:00:30;0.00;0.00;0.62;0.00;0.00;0.62;5.40;3.33;;;29.00;23.20;;;;;;2231792;62;20406;-60
2023/07/03 07:03:15;0.00;0.00;0.62;0.00;0.00;0.62;4.50;2.90;;;29.00;23.20;;;;;;2232164;62;20439;-59
2023/07/03 07:06:08;0.00;0.00;0.62;0.00;0.00;0.62;4.27;3.10;;;29.00;23.20;;;;;;2231888;62;20380;-62
2023/07/03 07:08:53;0.00;0.00;0.62;0.00;0.00;0.62;4.80;2.80;;;29.00;23.20;;;;;;2228584;62;20974;-59
2023/07/03 07:11:38;0.00;0.00;0.62;0.00;0.00;0.62;4.80;3.30;;;29.00;23.30;;;;;;2232540;62;20367;-63
2023/07/03 07:14:24;0.00;0.00;0.62;0.00;0.00;0.62;7.70;3.20;;;29.00;23.20;;;;;;2231743;62;20399;-64
2023/07/03 07:17:09;0.00;0.00;0.62;0.00;0.00;0.62;4.03;3.13;;;29.00;23.30;;;;;;2232262;62;20439;-61
2023/07/03 07:19:54;0.00;0.00;0.62;0.00;0.00;0.62;4.00;3.10;;;29.00;23.30;;;;;;2232006;62;20431;-64
2023/07/03 07:22:38;0.00;0.00;0.62;0.00;0.00;0.62;6.57;3.50;;;29.00;23.30;;;;;;2231849;62;20445;-60
2023/07/03 07:25:23;0.00;0.00;0.62;0.00;0.00;0.62;4.70;3.17;;;29.00;23.30;;;;;;2232284;62;20450;-56
2023/07/03 07:28:07;0.00;0.00;0.62;0.00;0.00;0.62;5.57;3.60;;;29.00;23.30;;;;;;2231734;62;20384;-61
2023/07/03 07:30:54;0.00;0.00;0.62;0.00;0.00;0.62;5.17;3.20;;;29.00;23.30;;;;;;2232213;62;20375;-59
2023/07/03 07:33:39;0.00;0.00;0.62;0.00;0.00;0.62;4.20;3.07;;;29.00;23.30;;;;;;2232412;62;20395;-60
2023/07/03 07:36:25;0.00;0.00;0.62;0.00;0.00;0.62;5.03;3.07;;;29.00;23.30;;;;;;2231420;62;20402;-58
2023/07/03 07:39:10;0.00;0.00;0.62;0.00;0.00;0.62;3.13;2.27;;;29.00;23.30;;;;;;2231973;62;20367;-59
2023/07/03 07:41:56;0.00;0.00;0.62;0.00;0.00;0.62;4.67;3.10;;;29.00;23.30;;;;;;2232301;62;20371;-62
2023/07/03 07:44:41;0.00;0.00;0.62;0.00;0.00;0.62;3.47;2.67;;;29.00;23.30;;;;;;2231921;62;20386;-61
2023/07/03 07:47:28;0.00;0.00;0.62;0.00;0.00;0.62;4.80;3.43;;;29.00;23.30;;;;;;2232428;62;20367;-57
2023/07/03 07:50:12;0.00;0.00;0.62;0.00;0.00;0.62;4.30;3.13;;;29.00;23.30;;;;;;2231174;62;20910;-59
2023/07/03 07:52:59;0.00;0.00;0.62;0.00;0.00;0.62;5.73;3.17;;;29.00;23.30;;;;;;2232405;62;20720;-58
2023/07/03 07:55:44;0.00;0.00;0.62;0.00;0.00;0.62;4.17;3.20;;;29.00;23.30;;;;;;2232328;62;20375;-56
2023/07/03 07:58:29;0.00;0.00;0.62;0.00;0.00;0.62;5.63;3.23;;;29.00;23.90;;;;;;2231673;62;20894;-59
2023/07/03 08:01:14;0.00;0.00;0.62;0.00;0.00;0.62;5.57;3.17;;;29.00;23.30;;;;;;2232954;62;20921;-59
2023/07/03 08:04:00;0.00;0.00;0.62;0.00;0.00;0.62;4.00;2.67;;;29.00;23.30;;;;;;2232815;62;20458;-58
2023/07/03 08:06:45;0.00;0.00;0.62;0.00;0.00;0.62;4.47;2.80;;;29.00;23.30;;;;;;2232599;62;20367;-62
2023/07/03 08:09:30;0.00;0.00;0.62;0.00;0.00;0.62;4.53;3.43;;;29.00;23.30;;;;;;2232361;62;20434;-59
2023/07/03 08:12:14;0.00;0.00;0.62;0.00;0.00;0.62;4.60;3.20;;;29.00;23.90;;;;;;2232342;62;20371;-63
2023/07/03 08:14:59;0.00;0.00;0.62;0.00;0.00;0.62;5.47;3.20;;;29.00;23.40;;;;;;2232770;62;20395;-61
2023/07/03 08:17:43;0.00;0.00;0.62;0.00;0.00;0.62;5.37;3.00;;;29.00;23.40;;;;;;2229652;62;20391;-59
2023/07/03 08:20:30;0.00;0.00;0.62;0.00;0.00;0.62;6.53;3.50;;;29.00;23.40;;;;;;2231690;62;20370;-59
2023/07/03 08:23:15;0.00;0.00;0.62;0.00;0.00;0.62;3.80;2.90;;;29.00;23.40;;;;;;2232765;62;20394;-62
2023/07/03 08:26:01;0.00;0.00;0.62;0.00;0.00;0.62;5.20;3.70;;;29.00;23.40;;;;;;2233116;62;20366;-64
2023/07/03 08:28:46;0.00;0.00;0.62;0.00;0.00;0.62;4.60;3.43;;;29.00;23.40;;;;;;2231803;62;20375;-63
2023/07/03 08:31:30;0.00;0.00;0.62;0.00;0.00;0.62;5.40;3.33;;;29.00;23.40;;;;;;2232902;62;20380;-60
2023/07/03 08:34:15;0.00;0.00;0.62;0.00;0.00;0.62;6.80;3.97;;;29.00;23.50;;;;;;2232400;62;20406;-62
2023/07/03 08:37:01;0.00;0.00;0.62;0.00;0.00;0.62;4.70;3.07;;;29.00;24.00;;;;;;2232622;62;20438;-57
2023/07/03 08:39:46;0.00;0.00;0.62;0.00;0.00;0.62;5.70;3.90;;;29.00;23.50;;;;;;2232455;62;20411;-57
2023/07/03 08:42:35;0.00;0.00;0.62;0.00;0.00;0.62;5.90;4.20;;;29.00;23.50;;;;;;2232174;62;20351;-60
2023/07/03 08:45:24;0.00;0.00;0.62;0.00;0.00;0.62;5.03;2.90;;;29.00;23.50;;;;;;2232805;62;20414;-64
2023/07/03 08:48:14;0.00;0.00;0.62;0.00;0.00;0.62;6.67;3.80;;;29.00;23.50;;;;;;2232699;62;20371;-65
2023/07/03 08:51:02;0.00;0.00;0.62;0.00;0.00;0.62;4.50;3.50;;;29.00;23.50;;;;;;2231871;62;20490;-62
2023/07/03 08:53:56;0.00;0.00;0.62;0.00;0.00;0.62;6.57;4.03;;;29.00;23.50;;;;;;2232501;62;20391;-62
2023/07/03 08:56:41;0.00;0.00;0.62;0.00;0.00;0.62;6.00;4.10;;;29.00;23.60;;;;;;2232066;62;20844;-64
2023/07/03 08:59:25;0.00;0.00;0.62;0.00;0.00;0.62;4.90;3.90;;;29.00;23.60;;;;;;2232361;62;20419;-60
2023/07/03 09:02:20;0.00;0.00;0.62;0.00;0.00;0.62;5.60;4.30;;;29.00;24.10;;;;;;2232549;62;20363;-63
2023/07/03 09:05:29;0.00;0.00;0.62;0.00;0.00;0.62;5.17;4.40;;;29.00;23.60;;;;;;2232316;62;20918;-60
2023/07/03 09:08:26;0.00;0.00;0.62;0.00;0.00;0.62;4.63;3.80;;;29.00;23.60;;;;;;2232400;62;20368;-66
2023/07/03 09:11:15;0.00;0.00;0.62;0.00;0.00;0.62;5.73;4.13;;;29.00;23.60;;;;;;2232055;62;20886;-62
2023/07/03 09:14:02;0.00;0.00;0.62;0.00;0.00;0.62;5.70;4.70;;;29.00;23.60;;;;;;2232583;62;20450;-58
2023/07/03 09:16:47;0.00;0.00;0.62;0.00;0.00;0.62;6.17;4.70;;;29.00;23.70;;;;;;2232740;62;20428;-61
2023/07/03 09:19:33;0.00;0.00;0.62;0.00;0.00;0.62;7.60;5.17;;;29.00;23.70;;;;;;2231581;62;20376;-62
2023/07/03 09:22:36;0.00;0.00;0.62;0.00;0.00;0.62;5.23;4.00;;;28.90;23.60;;;;;;2232537;62;20403;-60
2023/07/03 09:25:26;0.00;0.00;0.62;0.00;0.00;0.62;6.00;5.03;;;29.00;23.70;;;;;;2232779;62;20457;-62
2023/07/03 09:28:12;0.00;0.00;0.62;0.00;0.00;0.62;6.73;4.03;;;29.00;23.90;;;;;;2232074;62;20447;-62
2023/07/03 09:30:57;0.00;0.00;0.62;0.00;0.00;0.62;4.63;4.03;;;29.00;23.70;;;;;;2232330;62;20412;-62
2023/07/03 09:33:42;0.00;0.00;0.62;0.00;0.00;0.62;6.60;5.00;;;29.00;23.70;;;;;;2231868;62;20391;-62
2023/07/03 09:36:37;0.00;0.00;0.62;0.00;0.00;0.62;5.90;5.10;;;29.00;23.70;;;;;;2232637;62;22392;-59
2023/07/03 09:39:23;0.00;0.00;0.62;0.00;0.00;0.62;7.20;3.97;;;29.00;24.30;;;;;;2232299;62;20775;-60
2023/07/03 09:42:08;0.00;0.00;0.62;0.00;0.00;0.62;6.30;4.30;;;29.00;23.80;;;;;;2231826;62;20375;-60
2023/07/03 09:44:54;0.00;0.00;0.62;0.00;0.00;0.62;5.20;3.87;;;29.00;23.80;;;;;;2232629;62;20504;-61
2023/07/03 09:47:41;0.00;0.00;0.62;0.00;0.00;0.62;4.60;3.90;;;29.00;23.80;;;;;;2232611;62;20363;-62
2023/07/03 09:50:30;0.00;0.00;0.62;0.00;0.00;0.62;5.07;3.87;;;29.00;23.80;;;;;;2231886;62;20400;-60
2023/07/03 09:53:17;0.00;0.00;0.62;0.00;0.00;0.62;5.17;4.10;;;29.00;23.80;;;;;;2232681;62;20391;-58
2023/07/03 09:56:03;0.00;0.00;0.62;0.00;0.00;0.62;5.43;3.93;;;29.00;23.80;;;;;;2231881;62;20776;-60
2023/07/03 09:58:50;0.00;0.00;0.62;0.00;0.00;0.62;5.20;3.97;;;29.00;23.80;;;;;;2232236;62;20407;-61
2023/07/03 10:01:39;0.00;0.00;0.62;0.00;0.00;0.62;6.57;4.47;;;29.00;23.80;;;;;;2232392;62;20451;-61
2023/07/03 10:04:24;0.00;0.00;0.62;0.00;0.00;0.62;5.37;4.53;;;29.00;23.80;;;;;;2231569;62;20399;-60
2023/07/03 10:07:15;0.00;0.00;0.62;0.00;0.00;0.62;6.17;4.40;;;29.00;23.80;;;;;;2232562;62;20363;-58
2023/07/03 10:10:00;0.00;0.00;0.62;0.00;0.00;0.62;5.57;4.30;;;29.00;23.80;;;;;;2232129;62;20372;-61
2023/07/03 10:12:56;0.00;0.00;0.62;0.00;0.00;0.62;7.00;4.80;;;29.00;24.30;;;;;;2232118;62;20812;-56
2023/07/03 10:15:42;0.00;0.00;0.62;0.00;0.00;0.62;5.40;4.33;;;29.00;23.90;;;;;;2232628;62;20951;-57
2023/07/03 10:18:32;0.00;0.00;0.62;0.00;0.00;0.62;6.17;4.30;;;29.00;23.80;;;;;;2231177;62;20899;-62
2023/07/03 10:21:20;0.00;0.00;0.62;0.00;0.00;0.62;5.80;4.73;;;29.10;23.80;;;;;;2232321;62;20395;-60
2023/07/03 10:24:07;0.00;0.00;0.62;0.00;0.00;0.62;5.13;4.63;;;29.00;23.80;;;;;;2232395;62;20451;-58
2023/07/03 10:26:58;0.00;0.00;0.62;0.00;0.00;0.62;6.50;4.93;;;29.10;23.90;;;;;;2231552;62;20939;-61
2023/07/03 10:29:51;0.00;0.00;0.62;0.00;0.00;0.62;5.23;4.30;;;29.10;23.90;;;;;;2232005;62;20371;-61
2023/07/03 10:32:39;0.00;0.00;0.62;0.00;0.00;0.62;6.17;4.97;;;29.10;23.80;;;;;;2231965;62;20456;-61
2023/07/03 10:35:30;0.00;0.00;0.62;0.00;0.00;0.62;4.53;4.10;;;29.10;23.80;;;;;;2232297;62;20902;-59
2023/07/03 10:38:25;0.00;0.00;0.62;0.00;0.00;0.62;4.63;4.13;;;29.10;23.80;;;;;;2231983;62;20471;-59
2023/07/03 10:41:15;0.00;0.00;0.62;0.00;0.00;0.62;5.80;4.10;;;29.10;23.80;;;;;;2231748;62;20463;-61
2023/07/03 10:44:08;0.00;0.00;0.62;0.00;0.00;0.62;6.63;4.37;;;29.10;23.90;;;;;;2232478;62;20384;-59
2023/07/03 10:46:59;0.00;0.00;0.62;0.00;0.00;0.62;6.90;4.40;;;29.10;23.90;;;;;;2232424;62;20368;-61
2023/07/03 10:49:44;0.00;0.00;0.62;0.00;0.00;0.62;7.53;4.40;;;29.10;23.80;;;;;;2232423;62;20371;-63
2023/07/03 10:52:40;0.00;0.00;0.62;0.00;0.00;0.62;4.53;3.93;;;29.10;23.90;;;;;;2233089;62;20817;-61
2023/07/03 10:55:30;0.00;0.00;0.62;0.00;0.00;0.62;4.80;3.77;;;29.10;23.90;;;;;;2232298;62;20473;-61
2023/07/03 10:58:27;0.00;0.00;0.62;0.00;0.00;0.62;6.50;3.27;;;29.10;23.90;;;;;;2232556;62;20415;-61